BHB weather

Hancock County-Bar Harbor Airport
Bar Harbor, Maine, United States

Public forecast

Using degrees Fahrenheit for public forecast. Weather courtesy of forecast.io.

Current aviation weather report (METAR) for Hancock County-Bar Harbor Airport

Retrieved 2019/11/12 22:36 UTC (13 minutes ago):

KBHB 122236Z AUTO 32005KT 2SM -SN BR BKN009 BKN013 OVC026 M02/M03 A2974 RMK AO2 CIG 007V012 P0001 FZRANO

Aviation forecast (TAF) for Hancock County-Bar Harbor Airport

Retrieved 2019/11/12 18:34 UTC (4 hours ago):

TAF KBHB 121731Z 1218/1318 30008KT 3SM -RA OVC003 FM122000 29012G20KT 3SM -RASN OVC009 FM122200 30011G20KT 2SM -SN OVC020 FM130000 30011G20KT P6SM VCSH OVC030 FM130100 30011G20KT P6SM OVC070